Time;durP1;ratioP1;P1;durP2;ratioP2;P2;SDS_P1;SDS_P2;PMS_P1;PMS_P2;Temp;Humidity;BMP_temperature;BMP_pressure;BME280_temperature;BME280_humidity;BME280_pressure;Samples;Min_cycle;Max_cycle;Signal;HPM_P1;HPM_P2
2023/12/20 00:00:37;;;;;;;10.77;5.78;;;;;;;18.36;60.98;98958.84;2090489;28;20045;-66
2023/12/20 00:01:38;;;;;;;8.88;5.97;;;;;;;18.37;61.02;98962.38;2087088;28;20462;-66
2023/12/20 00:02:40;;;;;;;;;;;;;;;18.28;61.09;98959.00;2091850;28;20048;-66
2023/12/20 00:03:41;;;;;;;11.50;6.15;;;;;;;18.30;61.11;98963.16;2085801;28;19931;-66
2023/12/20 00:04:43;;;;;;;;;;;;;;;18.24;61.55;98958.53;2086089;28;20045;-66
2023/12/20 00:05:44;;;;;;;14.60;5.22;;;;;;;18.26;61.30;98952.97;2089185;28;19928;-66
2023/12/20 00:06:45;;;;;;;;;;;;;;;18.22;61.56;98951.69;2089898;28;20136;-66
2023/12/20 00:07:46;;;;;;;;;;;;;;;18.15;61.73;98950.81;2087369;28;19931;-66
2023/12/20 00:08:48;;;;;;;14.70;5.80;;;;;;;18.21;61.65;98947.34;2091854;28;19928;-67
2023/12/20 00:09:49;;;;;;;11.05;6.15;;;;;;;18.27;61.60;98951.94;2088381;28;20550;-66
2023/12/20 00:10:51;;;;;;;;;;;;;;;18.20;61.52;98945.69;2084169;28;20045;-66
2023/12/20 00:11:51;;;;;;;;;;;;;;;18.11;62.05;98942.31;2088977;28;20387;-66
2023/12/20 00:12:53;;;;;;;14.65;6.03;;;;;;;18.18;61.67;98948.56;2087881;28;19967;-66
2023/12/20 00:13:54;;;;;;;11.25;6.03;;;;;;;18.25;61.72;98945.97;2080633;28;20045;-66
2023/12/20 00:14:56;;;;;;;;;;;;;;;18.18;62.03;98945.88;2086066;28;20052;-66
2023/12/20 00:15:58;;;;;;;;;;;;;;;18.12;62.27;98943.16;2086552;28;19935;-66
2023/12/20 00:16:59;;;;;;;8.40;5.15;;;;;;;18.18;61.98;98947.75;2087453;28;20486;-66
2023/12/20 00:18:01;;;;;;;;;;;;;;;18.14;62.20;98935.75;2085781;28;20082;-66
2023/12/20 00:19:02;;;;;;;8.10;5.90;;;;;;;18.20;61.97;98935.78;2085367;28;19934;-66
2023/12/20 00:20:06;;;;;;;;;;;;;;;18.14;62.07;98935.75;2089645;28;20419;-66
2023/12/20 00:21:06;;;;;;;9.50;5.28;;;;;;;18.17;61.89;98936.19;2089989;28;20654;-66
2023/12/20 00:22:08;;;;;;;;;;;;;;;18.12;62.20;98938.59;2090827;28;20079;-66
2023/12/20 00:23:09;;;;;;;;;;;;;;;18.06;62.52;98934.84;2087812;28;19925;-66
2023/12/20 00:24:09;;;;;;;9.50;6.05;;;;;;;18.13;62.33;98934.06;2085697;28;20012;-66
2023/12/20 00:25:11;;;;;;;;;;;;;;;18.06;62.43;98934.84;2085856;28;20537;-66
2023/12/20 00:26:12;;;;;;;8.95;5.40;;;;;;;18.12;62.48;98932.41;2090045;28;19939;-66
2023/12/20 00:27:14;;;;;;;;;;;;;;;18.06;62.75;98934.84;2087717;28;20578;-66
2023/12/20 00:28:15;;;;;;;6.43;5.63;;;;;;;18.14;62.28;98935.75;2085960;28;19955;-66
2023/12/20 00:29:16;;;;;;;;;;;;;;;18.08;62.51;98937.34;2086544;28;20496;-66
2023/12/20 00:30:17;;;;;;;;;;;;;;;18.02;62.68;98938.09;2087782;28;20008;-66
2023/12/20 00:31:20;;;;;;;9.23;4.65;;;;;;;18.08;62.54;98931.97;2087037;28;19967;-66
2023/12/20 00:32:21;;;;;;;11.73;5.18;;;;;;;18.17;62.44;98935.34;2087327;28;20795;-66
2023/12/20 00:33:23;;;;;;;;;;;;;;;18.08;62.60;98938.16;2088163;28;20073;-66
2023/12/20 00:34:24;;;;;;;;;;;;;;;18.02;62.96;98932.72;2087326;28;19932;-66
2023/12/20 00:35:26;;;;;;;9.02;6.25;;;;;;;18.07;63.06;98931.13;2087836;28;19932;-66
2023/12/20 00:36:27;;;;;;;8.50;5.43;;;;;;;18.15;62.72;98926.66;2090929;28;20052;-66
2023/12/20 00:37:28;;;;;;;;;;;;;;;18.06;63.00;98929.47;2089201;28;20071;-66
2023/12/20 00:38:29;;;;;;;10.70;5.57;;;;;;;18.09;62.72;98922.88;2088506;28;19935;-65
2023/12/20 00:39:31;;;;;;;;;;;;;;;18.05;63.26;98922.44;2085797;28;20048;-66
2023/12/20 00:40:31;;;;;;;;;;;;;;;18.00;63.45;98918.69;2086116;28;20291;-66
2023/12/20 00:41:33;;;;;;;9.73;6.97;;;;;;;18.07;63.19;98915.00;2091403;28;20135;-66
2023/12/20 00:42:34;;;;;;;7.38;5.45;;;;;;;18.14;62.81;98911.59;2085945;28;20306;-66
2023/12/20 00:43:36;;;;;;;9.82;5.65;;;;;;;18.16;63.02;98912.19;2085123;28;20061;-66
2023/12/20 00:44:37;;;;;;;8.35;6.05;;;;;;;18.16;62.81;98907.66;2083724;28;20515;-66
2023/12/20 00:45:39;;;;;;;;;;;;;;;18.06;63.32;98910.69;2091266;28;20048;-65
2023/12/20 00:46:41;;;;;;;7.63;4.88;;;;;;;18.12;63.16;98908.25;2086529;28;19928;-66
2023/12/20 00:47:43;;;;;;;12.27;5.28;;;;;;;18.15;63.14;98910.53;2086406;28;20087;-66
2023/12/20 00:48:45;;;;;;;11.27;5.43;;;;;;;18.14;63.17;98904.34;2086607;28;20426;-66
2023/12/20 00:49:47;;;;;;;9.40;5.82;;;;;;;18.17;63.15;98903.97;2085647;28;20080;-66
2023/12/20 00:50:48;;;;;;;10.63;6.18;;;;;;;18.17;62.92;98895.91;2084470;28;20049;-66
2023/12/20 00:51:50;;;;;;;;;;;;;;;18.07;63.44;98892.72;2088169;28;20132;-66
2023/12/20 00:52:51;;;;;;;7.05;5.38;;;;;;;18.10;63.45;98895.00;2084090;28;20001;-66
2023/12/20 00:53:54;;;;;;;;;;;;;;;18.01;63.65;98894.31;2081112;28;20109;-66
2023/12/20 00:54:56;;;;;;;10.02;5.60;;;;;;;18.05;63.45;98887.56;2084869;28;19928;-66
2023/12/20 00:55:58;;;;;;;8.05;5.53;;;;;;;18.10;63.26;98886.97;2085592;28;20415;-65
2023/12/20 00:57:00;;;;;;;11.48;5.28;;;;;;;18.16;63.22;98885.34;2089643;28;20139;-66
2023/12/20 00:58:01;;;;;;;7.32;4.82;;;;;;;18.17;63.15;98889.72;2087470;28;20402;-66
2023/12/20 00:59:03;;;;;;;;;;;;;;;18.04;63.64;98885.88;2083904;28;20597;-66
2023/12/20 01:00:04;;;;;;;;;;;;;;;17.98;63.95;98889.34;2087063;28;19921;-66
2023/12/20 01:01:06;;;;;;;8.55;5.38;;;;;;;18.02;63.82;98882.56;2084503;28;19951;-66
2023/12/20 01:02:09;;;;;;;14.90;6.18;;;;;;;18.07;63.49;98877.44;2084578;28;20048;-66
2023/12/20 02:51:31;;;;;;;4.60;3.85;;;;;;;17.78;64.29;98752.34;2088638;28;20719;-65
2023/12/20 02:52:32;;;;;;;5.95;4.30;;;;;;;17.83;64.19;98752.59;2088080;28;20052;-65
2023/12/20 02:53:34;;;;;;;;;;;;;;;17.73;64.33;98746.69;2088381;28;20135;-66
2023/12/20 02:54:35;;;;;;;6.15;4.53;;;;;;;17.78;64.19;98741.63;2086480;28;19978;-65
2023/12/20 02:55:36;;;;;;;;;;;;;;;17.70;64.73;98747.09;2089881;28;20056;-65
2023/12/20 02:56:37;;;;;;;;;;;;;;;17.64;64.62;98743.34;2088578;28;20272;-66
2023/12/20 02:57:41;;;;;;;6.37;4.40;;;;;;;17.73;64.41;98745.88;2087620;28;19980;-65
2023/12/20 02:58:42;;;;;;;8.27;5.05;;;;;;;17.76;64.59;98735.56;2086642;28;20056;-66
2023/12/20 02:59:44;;;;;;;;;;;;;;;17.69;64.78;98741.91;2089159;28;20419;-65
2023/12/20 03:00:44;;;;;;;;;;;;;;;17.61;64.96;98733.00;2086780;28;19932;-65
2023/12/20 03:01:47;;;;;;;5.78;3.42;;;;;;;17.69;64.72;98734.72;2089746;28;19921;-66
2023/12/20 03:02:48;;;;;;;7.95;4.40;;;;;;;17.73;64.45;98735.16;2088688;28;20041;-66
2023/12/20 03:03:48;;;;;;;;;;;;;;;17.68;64.75;98733.03;2090203;28;20108;-65
2023/12/20 03:04:50;;;;;;;11.70;5.67;;;;;;;17.73;64.49;98729.78;2085253;28;20557;-65
2023/12/20 03:05:51;;;;;;;8.55;4.20;;;;;;;17.77;64.43;98731.03;2087165;28;20079;-66
2023/12/20 03:06:55;;;;;;;6.35;4.22;;;;;;;17.81;64.41;98726.97;2088903;28;20055;-66
2023/12/20 03:07:56;;;;;;;12.93;4.28;;;;;;;17.82;64.32;98724.09;2090835;28;20044;-65
2023/12/20 03:08:57;;;;;;;;;;;;;;;17.73;64.61;98719.88;2085196;28;20123;-66
2023/12/20 03:09:58;;;;;;;;;;;;;;;17.64;64.95;98716.50;2092887;28;19936;-66
2023/12/20 03:11:00;;;;;;;7.90;4.57;;;;;;;17.69;64.64;98713.25;2087435;28;19963;-65
2023/12/20 03:12:01;;;;;;;8.63;5.22;;;;;;;17.76;64.61;98718.66;2085459;28;21040;-65
2023/12/20 03:13:02;;;;;;;;;;;;;;;17.67;64.77;98711.78;2090191;28;20089;-66
2023/12/20 03:14:03;;;;;;;;;;;;;;;17.62;64.92;98720.41;2087908;28;19925;-65
2023/12/20 03:15:06;;;;;;;5.87;3.90;;;;;;;17.67;65.13;98711.78;2086908;28;19963;-66
2023/12/20 03:16:08;;;;;;;7.38;4.05;;;;;;;17.73;64.50;98708.31;2087225;28;20291;-66
2023/12/20 03:17:10;;;;;;;10.00;4.20;;;;;;;17.76;64.61;98711.44;2086766;28;20051;-65
2023/12/20 03:18:11;;;;;;;7.35;4.00;;;;;;;17.78;64.33;98713.94;2085589;28;20098;-66
2023/12/20 03:19:13;;;;;;;;;;;;;;;17.69;64.85;98713.25;2086159;28;20107;-66
2023/12/20 03:20:14;;;;;;;8.68;4.13;;;;;;;17.71;64.99;98713.03;2087773;28;19971;-65
2023/12/20 03:21:16;;;;;;;;;;;;;;;17.65;65.12;98723.53;2089619;28;20055;-66
2023/12/20 03:22:18;;;;;;;5.35;3.33;;;;;;;17.69;64.81;98715.94;2086600;28;19928;-65
2023/12/20 03:23:20;;;;;;;5.88;4.22;;;;;;;17.74;64.69;98720.69;2085780;28;21359;-65
2023/12/20 03:24:21;;;;;;;8.23;4.50;;;;;;;17.75;64.82;98711.63;2087100;28;20049;-66
2023/12/20 03:25:22;;;;;;;;;;;;;;;17.68;65.19;98711.56;2086866;28;20057;-65
2023/12/20 03:26:23;;;;;;;;;;;;;;;17.60;65.63;98707.19;2087411;28;19939;-66
2023/12/20 03:27:25;;;;;;;4.20;3.63;;;;;;;17.65;65.40;98720.03;2084659;28;20047;-65
2023/12/20 03:28:26;;;;;;;6.22;4.20;;;;;;;17.72;65.09;98720.91;2088353;28;20052;-65
2023/12/20 03:29:28;;;;;;;8.02;3.70;;;;;;;17.74;65.39;98718.00;2087269;28;20051;-65
2023/12/20 03:30:29;;;;;;;7.30;4.30;;;;;;;17.74;65.22;98710.78;2086690;28;20073;-65
2023/12/20 03:31:31;;;;;;;;;;;;;;;17.64;65.29;98716.50;2089375;28;22285;-66
2023/12/20 03:32:31;;;;;;;;;;;;;;;17.59;65.68;98710.06;2086871;28;19928;-65
2023/12/20 03:33:33;;;;;;;4.67;3.77;;;;;;;17.64;65.08;98715.69;2087038;28;20016;-65
2023/12/20 03:34:34;;;;;;;5.88;4.07;;;;;;;17.69;65.17;98710.56;2089093;28;20057;-65
2023/12/20 03:35:35;;;;;;;;;;;;;;;17.61;65.16;98706.19;2086781;28;20084;-65
2023/12/20 03:36:36;;;;;;;6.33;3.73;;;;;;;17.64;65.20;98708.47;2086878;28;20007;-65
2023/12/20 03:37:39;;;;;;;6.65;3.40;;;;;;;17.69;65.06;98710.56;2086608;28;20415;-65
2023/12/20 03:38:41;;;;;;;4.82;3.55;;;;;;;17.72;65.10;98706.63;2086385;28;20456;-66
2023/12/20 03:39:42;;;;;;;6.32;3.60;;;;;;;17.72;65.06;98714.69;2086235;28;20057;-65
2023/12/20 03:40:43;;;;;;;;;;;;;;;17.61;65.27;98716.91;2086641;28;20072;-65
2023/12/20 03:41:44;;;;;;;;;;;;;;;17.54;65.64;98715.19;2089865;28;20302;-65
2023/12/20 03:42:45;;;;;;;4.43;3.40;;;;;;;17.61;65.44;98722.28;2087596;28;20027;-65
2023/12/20 03:43:46;;;;;;;;;;;;;;;17.58;65.64;98717.28;2086711;28;20140;-66
2023/12/20 03:44:47;;;;;;;;;;;;;;;17.52;65.79;98717.22;2086213;28;19931;-65
2023/12/20 03:45:49;;;;;;;4.18;3.60;;;;;;;17.56;65.86;98713.97;2088716;28;20007;-66
2023/12/20 03:46:50;;;;;;;10.10;4.38;;;;;;;17.62;65.58;98710.50;2086380;28;20053;-66
2023/12/20 03:47:54;;;;;;;;;;;;;;;17.57;65.59;98714.78;2087528;28;20480;-66
2023/12/20 03:48:55;;;;;;;11.32;6.10;;;;;;;17.62;65.74;98705.16;2084772;28;19929;-66
2023/12/20 03:49:57;;;;;;;;;;;;;;;17.56;65.54;98708.59;2086959;28;20133;-66
2023/12/20 03:50:57;;;;;;;;;;;;;;;17.50;66.09;98709.41;2086752;28;19924;-66
2023/12/20 03:51:59;;;;;;;9.73;3.93;;;;;;;17.56;65.72;98708.59;2088315;28;20673;-65
2023/12/20 03:53:02;;;;;;;8.98;4.55;;;;;;;17.59;65.55;98702.03;2084334;28;20144;-66
2023/12/20 03:54:04;;;;;;;6.53;4.53;;;;;;;17.61;65.25;98700.81;2085337;28;20052;-66
2023/12/20 03:55:05;;;;;;;8.50;4.10;;;;;;;17.64;65.11;98700.41;2084309;28;20060;-65
2023/12/20 03:56:08;;;;;;;10.52;5.13;;;;;;;17.66;65.09;98702.88;2088377;28;20550;-65
2023/12/20 03:57:08;;;;;;;10.88;4.22;;;;;;;17.65;65.16;98699.38;2085762;28;20044;-66
2023/12/20 03:58:09;;;;;;;;;;;;;;;17.54;65.48;98701.78;2087006;28;20044;-66
2023/12/20 03:59:11;;;;;;;15.73;3.97;;;;;;;17.56;65.38;98697.06;2086193;28;19920;-65
2023/12/20 04:00:12;;;;;;;5.45;3.63;;;;;;;17.59;65.26;98697.50;2083564;28;20052;-66
2023/12/20 04:01:14;;;;;;;9.85;4.90;;;;;;;17.58;65.08;98703.88;2086587;28;20098;-65
2023/12/20 04:02:15;;;;;;;13.90;4.85;;;;;;;17.62;65.00;98701.63;2086955;28;20044;-66
2023/12/20 04:03:17;;;;;;;6.32;4.70;;;;;;;17.60;65.11;98704.50;2086376;28;20063;-66
2023/12/20 04:04:19;;;;;;;5.53;3.60;;;;;;;17.61;65.26;98700.00;2084641;28;20045;-65
2023/12/20 04:05:21;;;;;;;6.47;3.97;;;;;;;17.61;64.91;98700.81;2086462;28;20063;-66
2023/12/20 04:06:21;;;;;;;7.60;4.55;;;;;;;17.58;65.13;98698.53;2087885;28;20064;-65
2023/12/20 04:07:23;;;;;;;;;;;;;;;17.46;65.34;98696.56;2087510;28;20177;-66
2023/12/20 04:08:25;;;;;;;;;;;;;;;17.39;65.92;98702.72;2086321;28;19925;-65
2023/12/20 04:09:27;;;;;;;5.93;3.67;;;;;;;17.42;65.57;98696.94;2087664;28;19928;-66
2023/12/20 04:10:28;;;;;;;8.02;4.15;;;;;;;17.50;65.40;98693.31;2084466;28;20056;-66
2023/12/20 04:11:29;;;;;;;;;;;;;;;17.43;65.57;98697.78;2085001;28;20139;-65
2023/12/20 04:12:30;;;;;;;7.60;3.97;;;;;;;17.43;65.51;98695.91;2083534;28;20538;-65
2023/12/20 04:13:31;;;;;;;7.55;4.22;;;;;;;17.49;65.21;98686.25;2084716;28;20503;-66
2023/12/20 04:14:33;;;;;;;;;;;;;;;17.39;65.52;98689.31;2083182;28;20148;-66
2023/12/20 04:15:34;;;;;;;;;;;;;;;17.35;65.56;98695.22;2085585;28;19936;-65
2023/12/20 04:16:36;;;;;;;8.98;3.63;;;;;;;17.41;65.55;98691.78;2086837;28;19960;-65
2023/12/20 04:17:37;;;;;;;15.07;4.70;;;;;;;17.46;65.23;98688.50;2083457;28;20102;-66
2023/12/20 04:18:39;;;;;;;10.80;4.22;;;;;;;17.51;65.12;98689.59;2083950;28;20392;-65
2023/12/20 04:19:40;;;;;;;6.53;3.88;;;;;;;17.54;65.12;98689.19;2086247;28;20068;-65
2023/12/20 04:20:41;;;;;;;;;;;;;;;17.46;65.51;98691.19;2085207;28;20126;-66
2023/12/20 04:21:42;;;;;;;;;;;;;;;17.37;65.52;98701.25;2087685;28;19921;-66
2023/12/20 04:22:44;;;;;;;6.97;3.87;;;;;;;17.41;65.55;98691.78;2086401;28;20792;-66
2023/12/20 04:23:46;;;;;;;7.65;4.28;;;;;;;17.46;65.60;98692.03;2088670;28;20048;-65
2023/12/20 04:24:48;;;;;;;6.55;3.75;;;;;;;17.51;65.12;98694.13;2085061;28;20733;-65
2023/12/20 04:25:49;;;;;;;8.63;4.82;;;;;;;17.49;65.15;98688.94;2087502;28;20052;-66
2023/12/20 04:26:50;;;;;;;;;;;;;;;17.43;65.48;98681.69;2084772;28;20414;-66
2023/12/20 04:27:51;;;;;;;;;;;;;;;17.35;65.55;98684.50;2087894;28;20295;-65
2023/12/20 04:28:53;;;;;;;7.75;3.95;;;;;;;17.40;65.29;98679.41;2082672;28;20011;-65
2023/12/20 04:29:54;;;;;;;4.88;3.47;;;;;;;17.42;65.13;98682.72;2085778;28;20041;-66
2023/12/20 04:30:56;;;;;;;;;;;;;;;17.37;65.33;98677.09;2090850;28;20537;-65
2023/12/20 04:31:56;;;;;;;;;;;;;;;17.31;65.50;98680.56;2087662;28;19924;-65
2023/12/20 04:32:58;;;;;;;9.07;4.18;;;;;;;17.35;65.53;98676.47;2085200;28;20073;-65
2023/12/20 04:33:59;;;;;;;7.40;3.50;;;;;;;17.41;65.38;98681.03;2086358;28;20051;-65
2023/12/20 04:35:00;;;;;;;;;;;;;;;17.37;65.66;98677.09;2087371;28;20456;-66
2023/12/20 04:36:01;;;;;;;;;;;;;;;17.32;65.55;98679.53;2086409;28;19928;-66
2023/12/20 04:37:03;;;;;;;11.30;5.63;;;;;;;17.39;65.38;98681.25;2086366;28;19968;-66
2023/12/20 04:38:04;;;;;;;5.82;3.33;;;;;;;17.45;65.23;98679.66;2085044;28;20275;-66
2023/12/20 04:39:07;;;;;;;;;;;;;;;17.39;65.13;98678.56;2085343;28;20164;-66
2023/12/20 04:40:08;;;;;;;9.48;4.13;;;;;;;17.44;65.28;98675.31;2088322;28;19963;-66
2023/12/20 04:41:10;;;;;;;8.45;4.63;;;;;;;17.49;65.21;98675.53;2087137;28;20079;-66
2023/12/20 04:42:11;;;;;;;7.47;4.30;;;;;;;17.50;65.22;98674.53;2086756;28;20047;-66
2023/12/20 04:43:12;;;;;;;;;;;;;;;17.43;65.25;98673.66;2082117;28;20135;-66
2023/12/20 04:44:14;;;;;;;5.83;4.07;;;;;;;17.46;65.40;98681.28;2083443;28;19924;-66
2023/12/20 04:45:15;;;;;;;7.88;4.03;;;;;;;17.51;65.17;98678.03;2085345;28;20087;-66
2023/12/20 04:46:17;;;;;;;7.55;5.47;;;;;;;17.54;65.06;98674.97;2089851;28;20094;-66
2023/12/20 04:47:18;;;;;;;6.80;3.42;;;;;;;17.57;64.93;98670.03;2086991;28;20052;-66
2023/12/20 04:48:19;;;;;;;;;;;;;;;17.48;65.16;98673.91;2088126;28;20178;-65
2023/12/20 04:49:20;;;;;;;;;;;;;;;17.43;65.13;98676.31;2087850;28;20509;-66
2023/12/20 04:50:22;;;;;;;6.20;3.77;;;;;;;17.50;65.03;98669.16;2084297;28;19963;-66
2023/12/20 04:51:23;;;;;;;8.65;4.40;;;;;;;17.55;64.81;98674.78;2088697;28;20349;-66
2023/12/20 04:52:24;;;;;;;;;;;;;;;17.50;65.04;98669.16;2084366;28;20079;-66
2023/12/20 04:53:25;;;;;;;;;;;;;;;17.45;65.21;98671.59;2086144;28;19950;-66
2023/12/20 04:54:29;;;;;;;11.23;3.70;;;;;;;17.53;65.13;98676.81;2083666;28;20007;-66
2023/12/20 04:55:30;;;;;;;6.70;4.25;;;;;;;17.59;64.86;98669.84;2085595;28;20051;-66
2023/12/20 04:56:32;;;;;;;8.88;3.67;;;;;;;17.63;64.78;98673.78;2089839;28;20527;-66
2023/12/20 04:57:33;;;;;;;6.80;3.67;;;;;;;17.69;64.54;98666.81;2086019;28;20112;-66
2023/12/20 04:58:34;;;;;;;;;;;;;;;17.60;65.09;98676.84;2088337;28;20784;-66
2023/12/20 04:59:35;;;;;;;;;;;;;;;17.54;65.04;98675.78;2088001;28;19925;-65
2023/12/20 05:00:37;;;;;;;8.37;3.73;;;;;;;17.61;64.91;98665.13;2086067;28;20282;-66
2023/12/20 05:01:38;;;;;;;7.20;3.55;;;;;;;17.68;64.62;98667.84;2089856;28;20045;-66
2023/12/20 05:02:39;;;;;;;;;;;;;;;17.64;64.84;98668.22;2088414;28;20155;-66
2023/12/20 05:03:40;;;;;;;;;;;;;;;17.62;65.09;98669.44;2085910;28;19947;-66
2023/12/20 05:04:42;;;;;;;6.40;3.40;;;;;;;17.69;64.82;98670.34;2086814;28;20374;-66
2023/12/20 05:05:43;;;;;;;8.55;4.45;;;;;;;17.77;64.46;98667.47;2085496;28;20727;-66
2023/12/20 05:06:44;;;;;;;;;;;;;;;17.76;64.88;98662.31;2086083;28;20063;-66
2023/12/20 05:07:45;;;;;;;;;;;;;;;17.72;64.84;98659.22;2084915;28;19928;-66
2023/12/20 05:08:47;;;;;;;7.10;3.60;;;;;;;17.80;64.78;98660.91;2087304;28;19925;-66
2023/12/20 05:09:49;;;;;;;7.10;3.70;;;;;;;17.86;64.70;98662.84;2086012;28;20052;-66
2023/12/20 05:10:51;;;;;;;4.55;3.50;;;;;;;17.91;64.30;98664.91;2086721;28;20093;-66
2023/12/20 05:11:52;;;;;;;6.32;4.43;;;;;;;17.94;64.28;98651.09;2092123;28;20824;-66
2023/12/20 05:12:52;;;;;;;;;;;;;;;17.89;64.60;98659.75;2088413;28;20044;-66
2023/12/20 05:13:54;;;;;;;7.73;4.00;;;;;;;17.93;64.87;98662.84;2086627;28;19923;-66
2023/12/20 05:14:55;;;;;;;9.25;3.88;;;;;;;17.97;64.55;98651.53;2085772;28;20049;-66
2023/12/20 05:15:57;;;;;;;;;;;;;;;17.90;64.50;98656.03;2089129;28;20143;-65
2023/12/20 05:16:58;;;;;;;;;;;;;;;17.86;64.58;98652.91;2089894;28;19920;-66
2023/12/20 05:17:59;;;;;;;11.60;4.47;;;;;;;17.93;64.56;98649.44;2089391;28;20390;-65
2023/12/20 05:19:06;;;;;;;;;;;;;;;17.91;64.62;98648.81;2087984;28;20048;-66
2023/12/20 05:20:08;;;;;;;5.05;2.90;;;;;;;17.96;64.65;98651.72;2087333;28;19978;-66
2023/12/20 05:21:10;;;;;;;6.82;3.83;;;;;;;18.00;64.71;98640.41;2083948;28;20087;-66
2023/12/20 05:22:11;;;;;;;6.90;4.68;;;;;;;18.04;64.48;98640.81;2090537;28;20045;-66
2023/12/20 05:23:13;;;;;;;;;;;;;;;17.99;64.68;98637.91;2089592;28;20128;-65
2023/12/20 05:24:14;;;;;;;4.45;3.28;;;;;;;18.01;64.20;98636.69;2086888;28;19958;-66
2023/12/20 05:25:17;;;;;;;10.77;3.60;;;;;;;18.05;64.35;98632.59;2088442;28;20537;-66
2023/12/20 05:26:18;;;;;;;7.95;3.25;;;;;;;18.08;64.30;98631.34;2091086;28;20138;-66
2023/12/20 05:27:20;;;;;;;;;;;;;;;18.01;64.56;98634.00;2083168;28;20124;-66
2023/12/20 05:28:21;;;;;;;;;;;;;;;17.96;64.74;98632.94;2087911;28;20248;-66
2023/12/20 05:29:23;;;;;;;5.70;3.08;;;;;;;18.00;64.39;98634.22;2087755;28;20201;-67
2023/12/20 05:30:24;;;;;;;13.07;3.38;;;;;;;18.05;64.42;98629.91;2085217;28;20045;-66
2023/12/20 05:31:25;;;;;;;;;;;;;;;18.00;64.39;98628.84;2089562;28;20155;-66
2023/12/20 05:32:26;;;;;;;8.20;3.47;;;;;;;18.03;64.38;98629.25;2086808;28;21272;-67
2023/12/20 05:33:28;;;;;;;;;;;;;;;18.00;64.52;98624.31;2086768;28;20064;-66
2023/12/20 05:34:28;;;;;;;;;;;;;;;17.95;64.60;98634.81;2089751;28;20483;-66
2023/12/20 05:35:30;;;;;;;10.33;3.97;;;;;;;18.02;64.55;98629.44;2083350;28;19924;-65
2023/12/20 05:36:31;;;;;;;7.95;3.78;;;;;;;18.07;64.29;98630.50;2089212;28;20128;-66
2023/12/20 05:37:33;;;;;;;;;;;;;;;18.02;64.59;98632.97;2088586;28;20763;-66
2023/12/20 05:38:33;;;;;;;;;;;;;;;17.98;64.65;98637.09;2087041;28;19928;-66
2023/12/20 05:39:35;;;;;;;5.18;3.17;;;;;;;18.04;64.41;98636.28;2089044;28;20018;-65
2023/12/20 05:40:37;;;;;;;4.00;3.33;;;;;;;18.13;64.14;98636.09;2090299;28;20044;-65
2023/12/20 05:41:39;;;;;;;6.88;3.40;;;;;;;18.17;64.39;98642.75;2091305;28;20045;-66
2023/12/20 05:42:40;;;;;;;8.57;3.70;;;;;;;18.20;64.29;98634.28;2091901;28;20070;-65
2023/12/20 05:43:42;;;;;;;;;;;;;;;18.14;64.35;98641.28;2086690;28;20712;-66
2023/12/20 05:44:42;;;;;;;;;;;;;;;18.08;64.62;98637.56;2088961;28;19936;-66
2023/12/20 05:45:43;;;;;;;4.57;3.77;;;;;;;18.15;64.54;98631.38;2088304;28;20023;-66
2023/12/20 05:46:45;;;;;;;;;;;;;;;18.10;64.79;98631.97;2092487;28;20131;-66
2023/12/20 05:47:45;;;;;;;;;;;;;;;18.09;64.80;98633.00;2089294;28;19924;-65
2023/12/20 05:48:48;;;;;;;7.37;3.70;;;;;;;18.14;64.85;98627.88;2090923;28;19956;-66
2023/12/20 05:49:50;;;;;;;6.63;3.00;;;;;;;18.21;64.38;98619.81;2088825;28;20294;-66
2023/12/20 05:50:51;;;;;;;9.07;3.95;;;;;;;18.25;64.61;98621.09;2091739;28;20487;-66
2023/12/20 05:51:52;;;;;;;8.02;3.70;;;;;;;18.29;64.33;98622.34;2092999;28;20060;-66
2023/12/20 05:52:55;;;;;;;;;;;;;;;18.22;64.63;98618.78;2088107;28;20231;-67
2023/12/20 05:53:55;;;;;;;11.13;3.75;;;;;;;18.33;64.72;98610.19;2089471;28;20031;-66
2023/12/20 05:54:57;;;;;;;;;;;;;;;18.31;64.51;98605.00;2085644;28;20902;-65
2023/12/20 05:56:00;;;;;;;9.40;3.58;;;;;;;18.35;64.91;98599.22;2085846;28;20248;-66
2023/12/20 05:57:02;;;;;;;5.97;3.63;;;;;;;18.34;64.44;98601.09;2088859;28;20048;-66
2023/12/20 05:58:03;;;;;;;7.90;3.55;;;;;;;18.37;64.12;98589.09;2090075;28;20045;-65
2023/12/20 05:59:05;;;;;;;12.57;4.63;;;;;;;18.39;64.50;98590.56;2088817;28;20067;-66
2023/12/20 06:00:07;;;;;;;13.50;3.63;;;;;;;18.39;64.40;98590.56;2090939;28;20060;-66
2023/12/20 06:01:08;;;;;;;9.52;4.43;;;;;;;18.41;64.16;98584.97;2090733;28;20518;-66
2023/12/20 06:02:10;;;;;;;;;;;;;;;18.33;64.42;98586.00;2090687;28;20060;-66
2023/12/20 06:03:11;;;;;;;6.72;3.58;;;;;;;18.35;64.39;98586.63;2092610;28;20624;-66
2023/12/20 06:04:12;;;;;;;;;;;;;;;18.29;64.62;98582.88;2086669;28;20135;-66
2023/12/20 06:05:13;;;;;;;;;;;;;;;18.26;64.80;98582.47;2088979;28;20280;-66
2023/12/20 06:06:14;;;;;;;9.00;3.75;;;;;;;18.30;64.64;98581.03;2087928;28;20019;-66
2023/12/20 06:07:16;;;;;;;;;;;;;;;18.27;64.54;98581.44;2091360;28;20576;-66
2023/12/20 06:08:17;;;;;;;10.15;4.40;;;;;;;18.33;64.62;98586.00;2085805;28;19919;-65
2023/12/20 06:09:19;;;;;;;;;;;;;;;18.29;64.75;98579.38;2087421;28;20144;-65
2023/12/20 06:10:21;;;;;;;7.90;3.22;;;;;;;18.36;64.73;98580.22;2085163;28;19928;-66
2023/12/20 06:11:25;;;;;;;7.82;3.55;;;;;;;18.39;64.79;98574.44;2088481;28;20099;-66
2023/12/20 06:12:26;;;;;;;16.10;4.55;;;;;;;18.42;64.30;98570.53;2085957;28;20427;-66
2023/12/20 06:13:28;;;;;;;11.20;5.05;;;;;;;18.45;64.35;98570.94;2081987;28;20512;-66
2023/12/20 06:14:30;;;;;;;8.02;3.28;;;;;;;18.45;64.47;98565.56;2085794;28;20056;-66
2023/12/20 06:15:31;;;;;;;5.93;4.03;;;;;;;18.46;64.50;98563.72;2090073;28;20056;-66
2023/12/20 06:16:33;;;;;;;;;;;;;;;18.40;64.54;98564.53;2089922;28;20109;-66
2023/12/20 06:17:34;;;;;;;;;;;;;;;18.32;64.86;98554.81;2085996;28;19935;-65
2023/12/20 06:18:37;;;;;;;12.73;4.05;;;;;;;18.45;64.44;98557.53;2087717;28;19924;-66
2023/12/20 06:19:38;;;;;;;9.93;4.78;;;;;;;18.59;64.61;98552.16;2084550;28;20131;-66
2023/12/20 06:20:40;;;;;;;16.88;3.63;;;;;;;18.72;64.07;98546.78;2084468;28;20114;-67
2023/12/20 06:21:41;;;;;;;12.20;3.83;;;;;;;18.77;63.48;98543.50;2086698;28;21624;-66
2023/12/20 06:22:42;;;;;;;;;;;;;;;18.71;63.45;98545.13;2087694;28;20080;-66
2023/12/20 06:23:43;;;;;;;;;;;;;;;18.61;63.67;98547.41;2089762;28;19924;-66
2023/12/20 06:24:45;;;;;;;11.40;4.47;;;;;;;18.65;63.73;98548.66;2087603;28;19982;-68
2023/12/20 06:25:46;;;;;;;12.38;3.90;;;;;;;18.71;63.28;98550.50;2086358;28;21518;-66
2023/12/20 06:26:49;;;;;;;;;;;;;;;18.64;63.64;98549.69;2092190;28;20143;-66
2023/12/20 06:27:49;;;;;;;13.88;4.30;;;;;;;18.64;63.31;98550.53;2089694;28;19928;-66
2023/12/20 06:28:51;;;;;;;;;;;;;;;18.57;63.39;98554.22;2087224;28;20140;-66
2023/12/20 06:29:52;;;;;;;;;;;;;;;18.50;63.81;98556.91;2088072;28;19929;-65
2023/12/20 06:30:54;;;;;;;9.70;4.30;;;;;;;18.53;63.59;98557.31;2086622;28;21435;-66
2023/12/20 06:31:56;;;;;;;14.50;4.13;;;;;;;18.58;63.19;98558.56;2089407;28;20287;-66
2023/12/20 06:32:57;;;;;;;16.08;5.30;;;;;;;18.60;63.19;98553.81;2089695;28;23734;-67
2023/12/20 06:33:59;;;;;;;10.57;5.32;;;;;;;18.63;62.88;98553.41;2088679;28;20052;-66
2023/12/20 06:35:00;;;;;;;13.75;5.05;;;;;;;18.64;63.13;98555.06;2086338;28;20155;-66
2023/12/20 06:36:02;;;;;;;;;;;;;;;18.54;62.92;98556.28;2088371;28;20548;-66
2023/12/20 06:37:03;;;;;;;;;;;;;;;18.48;63.18;98554.41;2086927;28;19929;-68
2023/12/20 06:38:05;;;;;;;16.67;4.75;;;;;;;18.52;63.31;98555.66;2088270;28;20039;-66
2023/12/20 06:39:06;;;;;;;15.65;4.55;;;;;;;18.64;62.58;98558.56;2083562;28;20049;-66
2023/12/20 06:40:08;;;;;;;;;;;;;;;18.75;61.87;98558.00;2088292;28;20546;-66
2023/12/20 06:41:13;;;;;;;26.20;5.15;;;;;;;18.92;60.98;98554.91;2087819;28;19932;-65
2023/12/20 06:42:16;;;;;;;50.03;7.30;;;;;;;19.08;60.96;98556.31;2088862;28;20055;-69
2023/12/20 06:43:17;;;;;;;29.08;6.13;;;;;;;19.13;60.96;98556.53;2083351;28;20052;-68
2023/12/20 06:44:19;;;;;;;;;;;;;;;19.13;61.80;98561.91;2086735;28;20749;-67
2023/12/20 06:45:19;;;;;;;;;;;;;;;19.06;61.41;98561.09;2086358;28;19924;-67
2023/12/20 06:46:20;;;;;;;42.47;8.27;;;;;;;19.11;61.01;98570.19;2086334;28;20003;-70
2023/12/20 06:47:22;;;;;;;;;;;;;;;19.17;60.99;98576.59;2085446;28;20847;-66
2023/12/20 06:48:22;;;;;;;;;;;;;;;19.12;60.77;98574.50;2087619;28;20263;-65